Time;durP1;ratioP1;P1;durP2;ratioP2;P2;SDS_P1;SDS_P2;PMS_P1;PMS_P2;Temp;Humidity;BMP_temperature;BMP_pressure;BME280_temperature;BME280_humidity;BME280_pressure;Samples;Min_cycle;Max_cycle;Signal;HPM_P1;HPM_P2
2022/01/17 00:00:33;;;;;;;;;46.75;37.25;21.40;99.90;;;;;;5056150;28;8782;-71
2022/01/17 00:03:00;;;;;;;;;40.00;35.75;21.20;99.90;;;;;;5056702;28;8752;-71
2022/01/17 00:05:27;;;;;;;;;37.50;32.50;21.00;99.90;;;;;;5054787;28;8902;-71
2022/01/17 00:07:53;;;;;;;;;34.00;30.25;21.10;99.90;;;;;;5056598;28;8775;-71
2022/01/17 00:10:20;;;;;;;;;35.25;31.00;21.10;99.90;;;;;;5056626;28;8727;-70
2022/01/17 00:12:50;;;;;;;;;33.00;28.50;21.10;99.90;;;;;;5056513;28;8759;-71
2022/01/17 00:16:08;;;;;;;;;25.00;23.50;21.10;99.90;;;;;;5055022;28;8767;-71
2022/01/17 00:20:44;;;;;;;;;35.00;28.50;21.20;99.90;;;;;;5056252;28;8832;-72
2022/01/17 00:23:11;;;;;;;;;29.75;27.50;21.20;99.90;;;;;;5056197;28;8751;-72
2022/01/17 00:25:38;;;;;;;;;32.75;30.75;21.20;99.90;;;;;;5055908;28;8767;-71
2022/01/17 00:28:04;;;;;;;;;26.25;24.00;21.30;99.90;;;;;;5056836;28;8746;-71
2022/01/17 00:30:31;;;;;;;;;33.00;30.00;21.40;99.90;;;;;;5054714;28;8876;-72
2022/01/17 00:32:58;;;;;;;;;28.75;24.00;21.50;99.90;;;;;;5056340;28;8755;-72
2022/01/17 00:35:25;;;;;;;;;37.50;33.25;21.50;99.90;;;;;;5035208;28;8775;-72
2022/01/17 00:37:52;;;;;;;;;38.75;35.25;21.60;99.90;;;;;;5036129;28;8766;-72
2022/01/17 00:40:20;;;;;;;;;54.00;44.00;21.60;99.90;;;;;;5036399;28;8745;-70
2022/01/17 00:42:47;;;;;;;;;52.75;41.50;21.60;99.90;;;;;;5036007;28;8785;-72
2022/01/17 00:45:14;;;;;;;;;56.25;46.50;21.50;99.90;;;;;;5034826;28;9399;-72
2022/01/17 00:47:41;;;;;;;;;51.75;43.50;21.40;99.90;;;;;;5035786;28;9437;-72
2022/01/17 00:50:08;;;;;;;;;49.50;40.25;21.50;99.90;;;;;;5045801;28;8942;-72
2022/01/17 00:52:35;;;;;;;;;48.50;41.00;21.50;99.90;;;;;;5053858;28;8807;-72
2022/01/17 00:55:02;;;;;;;;;49.00;40.00;21.50;99.90;;;;;;5056274;28;8826;-71
2022/01/17 00:57:28;;;;;;;;;45.25;36.50;21.60;99.90;;;;;;5055527;28;8739;-71
2022/01/17 00:59:55;;;;;;;;;39.50;35.00;21.50;99.90;;;;;;5059189;28;8763;-72
2022/01/17 01:02:21;;;;;;;;;35.25;31.00;21.50;99.90;;;;;;5056347;28;9420;-71
2022/01/17 01:04:48;;;;;;;;;40.75;32.50;21.60;99.90;;;;;;5058938;28;8877;-71
2022/01/17 01:07:15;;;;;;;;;35.00;30.80;21.70;99.90;;;;;;5058224;28;8727;-71
2022/01/17 01:09:54;;;;;;;;;43.25;34.25;21.60;99.90;;;;;;5057436;28;8739;-71
2022/01/17 01:12:21;;;;;;;;;36.50;32.50;21.50;99.90;;;;;;5057116;28;8809;-70
2022/01/17 01:14:48;;;;;;;;;35.50;32.25;21.40;99.90;;;;;;5058783;28;8739;-71
2022/01/17 01:17:31;;;;;;;;;39.50;32.25;21.40;99.90;;;;;;5056685;28;8759;-69
2022/01/17 01:20:09;;;;;;;;;40.50;34.75;21.40;99.90;;;;;;5058245;28;8749;-69
2022/01/17 01:28:05;;;;;;;;;34.75;31.00;21.60;99.90;;;;;;5057598;28;8759;-71
2022/01/17 01:30:34;;;;;;;;;45.75;36.75;21.60;99.90;;;;;;5058171;28;8797;-71
2022/01/17 01:33:04;;;;;;;;;42.50;35.00;21.60;99.90;;;;;;5057050;28;8771;-70
2022/01/17 01:35:33;;;;;;;;;46.25;35.50;21.80;99.90;;;;;;5039354;28;8778;-67
2022/01/17 01:38:00;;;;;;;;;38.50;34.00;21.70;99.90;;;;;;5057208;28;8751;-67
2022/01/17 01:40:27;;;;;;;;;38.25;33.25;21.70;99.90;;;;;;5055520;28;8771;-79
2022/01/17 01:42:55;;;;;;;;;39.75;34.75;21.60;99.90;;;;;;5056873;28;8778;-77
2022/01/17 01:45:22;;;;;;;;;45.00;34.25;21.40;99.90;;;;;;5056408;28;8844;-75
2022/01/17 01:47:49;;;;;;;;;41.25;34.00;21.40;99.90;;;;;;5056919;28;8767;-74
2022/01/17 01:50:15;;;;;;;;;35.00;32.00;21.30;99.90;;;;;;5056467;28;8880;-77
2022/01/17 01:52:42;;;;;;;;;33.25;31.50;21.30;99.90;;;;;;5057229;28;8893;-70
2022/01/17 01:55:13;;;;;;;;;37.00;32.00;21.30;99.90;;;;;;5058282;28;8782;-67
2022/01/17 01:57:42;;;;;;;;;32.00;30.50;21.40;99.90;;;;;;5057745;28;8752;-65
2022/01/17 02:00:09;;;;;;;;;30.50;29.00;21.40;99.90;;;;;;5057848;28;8770;-65
2022/01/17 02:02:36;;;;;;;;;28.75;26.75;21.50;99.90;;;;;;5057802;28;8755;-66
2022/01/17 02:05:04;;;;;;;;;29.50;27.00;21.70;99.90;;;;;;5057618;28;8754;-66
2022/01/17 02:07:31;;;;;;;;;29.25;28.25;21.70;99.90;;;;;;5057388;28;8743;-66
2022/01/17 02:09:58;;;;;;;;;28.50;27.25;21.80;99.90;;;;;;5058351;28;8743;-66
2022/01/17 02:12:29;;;;;;;;;31.25;25.75;22.10;99.90;;;;;;5057122;28;8755;-69
2022/01/17 02:14:56;;;;;;;;;29.25;25.00;22.00;99.90;;;;;;5057814;28;8739;-65
2022/01/17 02:17:24;;;;;;;;;30.50;27.75;22.10;99.90;;;;;;5057013;28;8759;-68
2022/01/17 02:20:03;;;;;;;;;27.20;26.00;22.00;99.90;;;;;;5057474;28;8801;-65
2022/01/17 02:22:30;;;;;;;;;13.80;12.20;22.10;99.90;;;;;;5057168;28;8739;-64
2022/01/17 02:24:57;;;;;;;;;19.40;16.80;22.20;99.90;;;;;;5057240;28;8774;-65
2022/01/17 02:27:24;;;;;;;;;23.20;23.20;22.20;99.90;;;;;;5057048;28;8727;-75
2022/01/17 02:29:50;;;;;;;;;22.60;19.20;22.30;99.90;;;;;;5054884;28;8755;-74
2022/01/17 02:32:17;;;;;;;;;23.00;22.20;22.40;99.90;;;;;;5056684;28;9507;-73
2022/01/17 02:34:44;;;;;;;;;25.00;21.20;22.70;99.90;;;;;;5055714;28;8724;-76
2022/01/17 02:37:11;;;;;;;;;20.60;20.40;22.70;99.90;;;;;;5057678;28;8752;-76
2022/01/17 02:39:38;;;;;;;;;15.80;15.00;22.60;99.90;;;;;;5056586;28;8759;-76
2022/01/17 02:42:05;;;;;;;;;19.40;18.00;22.80;99.90;;;;;;5057019;28;8739;-76
2022/01/17 02:44:32;;;;;;;;;18.20;16.20;22.80;99.90;;;;;;5054889;28;8745;-77
2022/01/17 02:47:02;;;;;;;;;20.60;17.60;23.00;99.90;;;;;;5055880;28;8863;-72
2022/01/17 02:49:28;;;;;;;;;20.00;16.00;23.10;99.90;;;;;;5055004;28;8962;-77
2022/01/17 02:51:55;;;;;;;;;6.80;6.60;23.30;99.90;;;;;;5057583;28;8780;-66
2022/01/17 02:54:22;;;;;;;;;19.40;15.40;23.40;99.90;;;;;;5056251;28;9444;-66
2022/01/17 02:56:49;;;;;;;;;15.80;15.60;23.30;99.90;;;;;;5038773;28;8744;-67
2022/01/17 02:59:15;;;;;;;;;17.20;16.00;23.40;99.90;;;;;;5055797;28;8739;-71
2022/01/17 03:01:42;;;;;;;;;18.40;14.80;23.50;99.90;;;;;;5039286;28;8846;-73
2022/01/17 03:04:11;;;;;;;;;15.40;15.40;23.60;99.90;;;;;;5055781;28;9422;-72
2022/01/17 03:06:38;;;;;;;;;19.20;18.60;23.70;99.90;;;;;;5055475;28;8767;-76
2022/01/17 03:09:05;;;;;;;;;18.00;18.00;23.80;99.90;;;;;;5056877;28;9030;-73
2022/01/17 03:11:31;;;;;;;;;18.60;18.60;23.80;99.90;;;;;;5055513;28;8769;-74
2022/01/17 03:13:59;;;;;;;;;19.80;18.00;23.90;99.90;;;;;;5055818;28;8755;-65
2022/01/17 03:16:30;;;;;;;;;19.80;18.60;23.90;99.90;;;;;;5038456;28;8925;-64
2022/01/17 03:18:57;;;;;;;;;18.20;17.60;23.80;99.90;;;;;;5055454;28;8882;-66
2022/01/17 03:21:27;;;;;;;;;22.80;22.00;23.80;99.90;;;;;;5054525;28;8775;-67
2022/01/17 03:23:53;;;;;;;;;21.60;18.00;24.00;99.90;;;;;;5056551;28;8775;-67
2022/01/17 03:26:20;;;;;;;;;21.20;20.80;23.80;99.90;;;;;;5054286;28;8848;-67
2022/01/17 03:28:47;;;;;;;;;30.40;29.00;23.70;99.90;;;;;;5055397;28;8810;-67
2022/01/17 03:31:14;;;;;;;;;27.00;23.00;23.80;99.90;;;;;;5055598;28;8799;-66
2022/01/17 03:33:40;;;;;;;;;24.25;23.50;23.90;99.90;;;;;;5056700;28;8763;-68
2022/01/17 03:36:10;;;;;;;;;29.50;28.25;23.80;99.90;;;;;;5054521;28;8783;-71
2022/01/17 03:38:37;;;;;;;;;19.80;15.20;23.80;99.90;;;;;;5054821;28;8856;-71
2022/01/17 03:41:05;;;;;;;;;24.50;24.50;23.80;99.90;;;;;;5051853;28;8774;-73
2022/01/17 03:43:32;;;;;;;;;27.75;26.00;23.80;99.90;;;;;;5055450;28;8732;-73
2022/01/17 03:45:59;;;;;;;;;21.60;20.20;23.70;99.90;;;;;;5055530;28;8767;-74
2022/01/17 03:48:26;;;;;;;;;21.40;18.40;23.70;99.90;;;;;;5053959;28;8810;-74
2022/01/17 03:50:56;;;;;;;;;21.80;20.00;23.70;99.90;;;;;;5034444;28;9479;-73
2022/01/17 03:53:23;;;;;;;;;16.20;15.00;23.70;99.90;;;;;;5028416;28;8815;-70
2022/01/17 03:55:53;;;;;;;;;18.40;17.20;23.80;99.90;;;;;;5034769;28;8774;-72
2022/01/17 03:58:21;;;;;;;;;20.20;17.00;23.70;99.90;;;;;;5018512;28;8754;-75
2022/01/17 04:00:48;;;;;;;;;19.80;19.20;23.80;99.90;;;;;;5018475;28;8824;-72
2022/01/17 04:03:15;;;;;;;;;24.40;22.60;23.90;99.90;;;;;;5034516;28;8778;-72
2022/01/17 04:05:41;;;;;;;;;15.80;15.60;23.70;99.90;;;;;;5049976;28;8771;-73
2022/01/17 04:08:08;;;;;;;;;34.75;28.50;23.60;99.90;;;;;;5037269;28;8794;-73
2022/01/17 04:10:35;;;;;;;;;18.20;18.20;23.40;99.90;;;;;;5054325;28;9258;-71
2022/01/17 04:13:04;;;;;;;;;25.20;24.40;23.50;99.90;;;;;;5039058;28;8740;-68
2022/01/17 04:15:35;;;;;;;;;23.40;21.20;23.50;99.90;;;;;;5054462;28;8795;-72
2022/01/17 04:18:05;;;;;;;;;22.75;21.00;23.50;99.90;;;;;;5037851;28;8767;-72
2022/01/17 04:20:32;;;;;;;;;30.80;27.40;23.50;99.90;;;;;;5054653;28;8786;-69
2022/01/17 04:23:06;;;;;;;;;23.75;20.00;23.50;99.90;;;;;;5055444;28;8771;-71
2022/01/17 04:25:34;;;;;;;;;21.80;19.20;23.50;99.90;;;;;;5027884;28;8909;-69
2022/01/17 04:28:01;;;;;;;;;18.60;18.60;23.60;99.90;;;;;;5054974;28;8736;-69
2022/01/17 04:30:28;;;;;;;;;23.80;22.80;23.60;99.90;;;;;;5053857;28;8793;-69
2022/01/17 04:32:55;;;;;;;;;22.60;22.60;23.60;99.90;;;;;;5055752;28;8771;-69
2022/01/17 04:35:22;;;;;;;;;20.40;19.40;23.60;99.90;;;;;;5038129;28;8767;-70
2022/01/17 04:37:51;;;;;;;;;18.40;17.60;23.60;99.90;;;;;;5042423;28;8797;-69
2022/01/17 04:40:18;;;;;;;;;21.40;17.40;23.70;99.90;;;;;;5022662;28;8742;-67
2022/01/17 04:42:47;;;;;;;;;24.60;19.00;23.90;99.90;;;;;;5039916;28;9411;-69
2022/01/17 04:45:16;;;;;;;;;18.20;18.20;24.10;99.90;;;;;;5040066;28;8765;-71
2022/01/17 04:47:45;;;;;;;;;21.40;18.20;24.10;99.90;;;;;;5038356;28;8757;-70
2022/01/17 04:50:18;;;;;;;;;20.00;18.80;24.10;99.90;;;;;;5048437;28;8819;-71
2022/01/17 04:52:46;;;;;;;;;21.80;19.40;24.30;99.90;;;;;;5058968;28;8891;-67
2022/01/17 04:55:14;;;;;;;;;23.20;21.40;24.40;99.90;;;;;;5059364;28;8728;-70
2022/01/17 04:57:42;;;;;;;;;19.40;18.40;24.60;99.90;;;;;;5058929;28;9262;-67
2022/01/17 05:00:10;;;;;;;;;19.60;19.60;24.60;99.90;;;;;;5041685;28;8771;-67
2022/01/17 05:02:37;;;;;;;;;25.00;23.40;24.40;99.90;;;;;;5057552;28;8779;-67
2022/01/17 05:05:04;;;;;;;;;21.40;20.80;24.40;99.90;;;;;;5058937;28;8763;-67
2022/01/17 05:07:33;;;;;;;;;22.60;20.80;24.40;99.90;;;;;;5057962;28;8739;-68
2022/01/17 05:10:00;;;;;;;;;24.40;23.60;24.60;99.90;;;;;;5059831;28;8728;-67
2022/01/17 05:12:27;;;;;;;;;22.20;21.80;24.90;99.90;;;;;;5058055;28;8864;-69
2022/01/17 05:14:54;;;;;;;;;21.80;19.60;25.00;99.90;;;;;;5059119;28;8747;-65
2022/01/17 05:19:57;;;;;;;;;21.80;18.80;25.20;99.90;;;;;;5056918;28;8743;-67
2022/01/17 05:22:31;;;;;;;;;22.20;20.80;25.30;99.90;;;;;;5040273;28;8732;-67
2022/01/17 05:24:59;;;;;;;;;24.00;20.80;25.40;99.90;;;;;;5057974;28;8751;-68
2022/01/17 05:27:25;;;;;;;;;22.20;20.00;25.50;99.90;;;;;;5058357;28;9415;-68
2022/01/17 05:29:55;;;;;;;;;25.60;24.20;25.40;99.90;;;;;;5040649;28;8736;-68
2022/01/17 05:32:21;;;;;;;;;20.40;19.20;25.40;99.90;;;;;;5056304;28;8774;-68
2022/01/17 05:34:48;;;;;;;;;26.80;22.40;25.40;99.90;;;;;;5056926;28;8779;-66
2022/01/17 05:37:15;;;;;;;;;23.60;20.20;25.50;99.90;;;;;;5041491;28;8915;-72
2022/01/17 05:39:45;;;;;;;;;21.60;21.00;25.60;99.90;;;;;;5056330;28;8870;-67
2022/01/17 05:42:17;;;;;;;;;30.60;24.40;25.60;99.90;;;;;;5056585;28;8751;-67
2022/01/17 05:44:45;;;;;;;;;25.75;24.25;25.60;99.90;;;;;;5040539;28;9287;-68
2022/01/17 05:47:12;;;;;;;;;23.25;21.50;25.80;99.90;;;;;;5058276;28;8734;-68
2022/01/17 05:49:39;;;;;;;;;23.75;23.50;26.00;99.90;;;;;;5056780;28;9397;-68
2022/01/17 05:52:06;;;;;;;;;24.00;20.75;26.00;99.90;;;;;;5057300;28;9364;-72
2022/01/17 05:54:35;;;;;;;;;22.40;20.40;26.00;99.90;;;;;;5039949;28;8759;-73
2022/01/17 05:57:02;;;;;;;;;20.40;20.00;26.00;99.90;;;;;;5040581;28;8720;-78
2022/01/17 05:59:29;;;;;;;;;19.80;18.80;25.90;99.90;;;;;;5056186;28;8763;-71
2022/01/17 06:01:56;;;;;;;;;22.00;20.60;26.00;99.90;;;;;;5057511;28;8744;-71
2022/01/17 06:04:22;;;;;;;;;22.20;20.60;26.10;99.90;;;;;;5057741;28;8744;-72
2022/01/17 06:06:49;;;;;;;;;26.75;21.50;26.20;99.90;;;;;;5055890;28;8763;-73
2022/01/17 06:09:16;;;;;;;;;23.50;20.00;26.20;99.90;;;;;;5039469;28;8769;-67
2022/01/17 06:11:43;;;;;;;;;26.50;25.00;26.20;99.90;;;;;;5055253;28;8845;-70
2022/01/17 06:14:17;;;;;;;;;25.80;24.40;26.30;99.90;;;;;;5057494;28;8775;-68
2022/01/17 06:16:44;;;;;;;;;25.75;25.50;26.30;99.90;;;;;;5055411;28;8759;-67
2022/01/17 06:19:11;;;;;;;;;25.20;25.20;26.40;99.90;;;;;;5055464;28;8751;-67
2022/01/17 06:21:38;;;;;;;;;24.20;23.40;26.50;99.90;;;;;;5057569;28;8783;-67
2022/01/17 06:24:06;;;;;;;;;19.75;19.50;26.70;99.90;;;;;;5057588;28;8800;-68
2022/01/17 06:26:39;;;;;;;;;26.50;26.50;26.80;99.90;;;;;;5056342;28;9471;-67
2022/01/17 06:29:07;;;;;;;;;27.25;23.25;26.90;99.90;;;;;;5057846;28;8763;-67
2022/01/17 06:31:34;;;;;;;;;25.50;22.25;26.90;99.90;;;;;;5057398;28;8787;-67
2022/01/17 06:34:01;;;;;;;;;22.80;22.60;27.00;99.90;;;;;;5057897;28;8754;-66
2022/01/17 06:36:28;;;;;;;;;28.00;20.00;27.00;99.90;;;;;;5055940;28;8782;-66
2022/01/17 06:38:54;;;;;;;;;17.50;16.25;27.00;99.90;;;;;;5057061;28;8878;-66
2022/01/17 06:41:21;;;;;;;;;24.75;22.75;27.00;99.90;;;;;;5057180;28;8759;-66
2022/01/17 06:43:48;;;;;;;;;23.80;20.60;26.80;99.90;;;;;;5056713;28;8821;-68
2022/01/17 06:46:15;;;;;;;;;22.75;22.75;26.80;99.90;;;;;;5057813;28;8740;-68
2022/01/17 06:48:42;;;;;;;;;24.20;22.00;26.70;99.90;;;;;;5055310;28;8739;-68
2022/01/17 06:51:08;;;;;;;;;25.40;22.60;26.60;99.90;;;;;;5018943;28;8991;-66
2022/01/17 06:53:35;;;;;;;;;26.20;22.00;26.60;99.90;;;;;;5036063;28;8781;-67
2022/01/17 06:56:02;;;;;;;;;25.50;23.50;26.70;99.90;;;;;;5036800;28;8834;-67
2022/01/17 06:58:29;;;;;;;;;21.40;20.60;26.80;99.90;;;;;;5036902;28;8758;-66
2022/01/17 07:00:55;;;;;;;;;18.60;17.40;26.80;99.90;;;;;;5037685;28;8762;-67
2022/01/17 07:03:22;;;;;;;;;26.40;22.20;26.90;99.90;;;;;;5036589;28;8753;-67
2022/01/17 07:05:51;;;;;;;;;21.80;21.60;26.90;99.90;;;;;;5052191;28;8872;-67
2022/01/17 07:08:18;;;;;;;;;22.40;21.00;26.80;99.90;;;;;;5055708;28;9318;-65
2022/01/17 07:10:45;;;;;;;;;26.00;21.20;26.70;99.90;;;;;;5056849;28;8787;-67
2022/01/17 07:13:12;;;;;;;;;27.40;23.60;26.60;99.90;;;;;;5057461;28;8740;-67
2022/01/17 07:15:38;;;;;;;;;17.00;13.00;26.50;99.90;;;;;;5056489;28;8771;-67
2022/01/17 07:18:06;;;;;;;;;24.40;24.40;26.50;99.90;;;;;;5057248;28;8763;-67
2022/01/17 07:20:33;;;;;;;;;24.60;23.00;26.50;99.90;;;;;;5055971;28;8915;-68
2022/01/17 07:23:00;;;;;;;;;17.40;17.40;26.50;99.90;;;;;;5064046;28;8740;-67
2022/01/17 07:25:27;;;;;;;;;27.40;24.40;26.50;99.90;;;;;;5039367;28;9426;-67
2022/01/17 07:27:55;;;;;;;;;25.00;22.20;26.60;99.90;;;;;;5040416;28;8720;-67
2022/01/17 07:30:23;;;;;;;;;23.00;23.00;26.70;99.90;;;;;;5057240;28;8871;-66
2022/01/17 07:32:49;;;;;;;;;23.75;22.50;26.80;99.90;;;;;;5023755;28;8740;-67
2022/01/17 07:35:16;;;;;;;;;20.60;18.40;26.90;99.90;;;;;;5039297;28;8805;-68
2022/01/17 07:37:43;;;;;;;;;24.00;22.00;26.90;99.90;;;;;;5056576;28;8709;-67
2022/01/17 07:40:10;;;;;;;;;21.20;20.40;27.00;99.90;;;;;;5057210;28;9401;-67
2022/01/17 07:42:37;;;;;;;;;22.75;19.75;27.00;99.90;;;;;;5057480;28;8760;-67
2022/01/17 07:45:18;;;;;;;;;21.80;21.20;27.00;99.90;;;;;;5058212;28;8708;-67
2022/01/17 07:50:18;;;;;;;;;23.80;21.40;27.30;99.90;;;;;;5057787;28;8874;-67
2022/01/17 07:52:45;;;;;;;;;18.00;18.00;27.40;99.90;;;;;;5056813;28;9369;-67
2022/01/17 07:55:14;;;;;;;;;16.40;14.80;27.40;99.90;;;;;;5040648;28;8721;-67
2022/01/17 07:57:43;;;;;;;;;22.40;19.00;27.40;99.90;;;;;;5057125;28;8708;-67
2022/01/17 08:00:15;;;;;;;;;22.20;21.40;27.40;99.90;;;;;;5057396;28;8851;-67
2022/01/17 08:02:44;;;;;;;;;22.20;19.80;27.50;99.50;;;;;;5039691;28;8712;-66
2022/01/17 08:05:14;;;;;;;;;20.00;18.60;27.50;98.90;;;;;;5056819;28;8740;-67
2022/01/17 08:07:43;;;;;;;;;20.00;19.25;27.50;99.60;;;;;;5058179;28;8980;-67
2022/01/17 08:10:14;;;;;;;;;20.40;19.60;27.60;98.70;;;;;;5061177;28;8725;-67
2022/01/17 08:12:46;;;;;;;;;23.00;22.25;27.60;99.60;;;;;;5060320;28;8729;-67
2022/01/17 08:15:12;;;;;;;;;22.50;20.50;27.60;99.90;;;;;;5060169;28;8733;-67
2022/01/17 08:17:39;;;;;;;;;21.60;20.40;27.50;99.70;;;;;;5059911;28;8736;-67
2022/01/17 08:20:07;;;;;;;;;25.50;23.75;27.40;99.30;;;;;;5041788;28;8700;-67
2022/01/17 08:22:33;;;;;;;;;24.25;21.75;27.40;99.50;;;;;;5059872;28;8843;-67
2022/01/17 08:25:00;;;;;;;;;19.00;15.00;27.20;99.90;;;;;;5060479;28;8802;-67
2022/01/17 08:27:27;;;;;;;;;25.25;22.25;27.10;99.90;;;;;;5059470;28;8716;-66
2022/01/17 08:29:54;;;;;;;;;24.75;22.25;27.20;99.90;;;;;;5059884;28;8770;-67
2022/01/17 08:32:22;;;;;;;;;30.25;25.75;27.20;99.90;;;;;;5058588;28;8878;-66
2022/01/17 08:34:48;;;;;;;;;21.25;20.25;27.30;99.90;;;;;;5024764;28;8756;-65
2022/01/17 08:37:15;;;;;;;;;25.50;23.75;27.40;99.90;;;;;;5042549;28;8865;-66
2022/01/17 08:39:42;;;;;;;;;25.25;21.75;27.40;99.10;;;;;;5059344;28;8768;-67
2022/01/17 08:42:10;;;;;;;;;19.75;18.00;27.40;98.90;;;;;;5041733;28;8778;-66
2022/01/17 08:44:40;;;;;;;;;22.60;21.00;27.40;99.20;;;;;;5059781;28;8833;-66
2022/01/17 08:47:07;;;;;;;;;23.80;21.40;27.40;98.30;;;;;;5059597;28;8795;-65
2022/01/17 08:49:33;;;;;;;;;21.60;20.60;27.40;98.00;;;;;;5059950;28;8737;-66
2022/01/17 08:52:00;;;;;;;;;19.00;18.60;27.50;98.90;;;;;;5060513;28;8788;-66
2022/01/17 08:54:27;;;;;;;;;19.50;18.00;27.40;98.30;;;;;;5059509;28;8814;-66
2022/01/17 08:56:53;;;;;;;;;20.80;20.80;27.30;98.00;;;;;;5059818;28;8752;-66
2022/01/17 08:59:20;;;;;;;;;24.00;22.75;27.30;98.10;;;;;;5059279;28;8771;-66
2022/01/17 09:01:47;;;;;;;;;13.50;11.75;27.40;98.40;;;;;;5059831;28;8807;-66
2022/01/17 09:04:13;;;;;;;;;25.25;22.75;27.40;97.90;;;;;;5060171;28;8737;-67
2022/01/17 09:06:40;;;;;;;;;23.00;22.50;27.40;97.90;;;;;;5032839;28;8767;-66
2022/01/17 09:09:07;;;;;;;;;24.50;23.25;27.40;98.60;;;;;;5059871;28;8776;-66
2022/01/17 09:11:33;;;;;;;;;24.00;23.00;27.50;98.90;;;;;;5059052;28;9433;-66
2022/01/17 09:14:00;;;;;;;;;18.20;16.40;27.50;98.50;;;;;;5041777;28;8783;-66
2022/01/17 09:16:27;;;;;;;;;27.75;25.25;27.50;98.80;;;;;;5059610;28;8966;-65
2022/01/17 09:18:53;;;;;;;;;24.50;24.00;27.60;98.50;;;;;;5059269;28;8741;-66
2022/01/17 09:21:20;;;;;;;;;23.25;20.50;27.60;98.40;;;;;;5059091;28;8737;-65
2022/01/17 09:23:50;;;;;;;;;22.50;20.75;27.60;97.80;;;;;;5041471;28;8744;-66
2022/01/17 09:26:18;;;;;;;;;21.75;20.00;27.70;97.60;;;;;;5059053;28;8744;-65
2022/01/17 09:28:45;;;;;;;;;22.25;20.00;27.70;97.80;;;;;;5041317;28;8800;-66
2022/01/17 09:31:12;;;;;;;;;25.00;24.50;27.60;98.20;;;;;;5042033;28;8772;-66
2022/01/17 09:33:38;;;;;;;;;25.67;25.00;27.60;98.10;;;;;;5058989;28;8756;-66
2022/01/17 09:36:05;;;;;;;;;24.50;22.75;27.70;97.80;;;;;;5041482;28;8870;-66
2022/01/17 09:38:32;;;;;;;;;27.25;26.50;27.70;97.80;;;;;;5037686;28;8750;-66
2022/01/17 09:40:58;;;;;;;;;24.00;22.00;27.80;97.50;;;;;;5053738;28;8772;-66
2022/01/17 09:43:25;;;;;;;;;29.00;24.50;27.80;97.40;;;;;;5059216;28;8733;-66
2022/01/17 09:45:52;;;;;;;;;25.75;24.50;27.80;97.30;;;;;;5025236;28;8741;-66
2022/01/17 09:48:22;;;;;;;;;26.00;23.00;27.90;97.10;;;;;;5041174;28;8771;-66
2022/01/17 09:51:02;;;;;;;;;23.75;22.75;27.90;97.00;;;;;;5058388;28;8970;-66
2022/01/17 09:53:29;;;;;;;;;23.80;18.00;27.80;97.00;;;;;;5058334;28;9488;-66
2022/01/17 09:56:02;;;;;;;;;24.00;24.00;27.80;96.60;;;;;;5040891;28;8843;-66
2022/01/17 09:58:30;;;;;;;;;24.00;22.60;27.70;96.60;;;;;;5040959;28;8736;-66
2022/01/17 10:00:59;;;;;;;;;24.80;24.20;27.70;96.60;;;;;;5059197;28;8755;-66
2022/01/17 10:03:26;;;;;;;;;25.25;19.00;27.60;97.40;;;;;;5058312;28;8737;-66
2022/01/17 10:05:52;;;;;;;;;24.25;22.50;27.50;97.80;;;;;;5007865;28;8779;-66
2022/01/17 10:08:20;;;;;;;;;25.00;21.25;27.50;97.40;;;;;;5058346;28;8798;-65
2022/01/17 10:10:54;;;;;;;;;20.00;19.75;27.50;97.10;;;;;;5058579;28;8794;-66
2022/01/17 10:13:23;;;;;;;;;25.00;22.75;27.50;96.50;;;;;;5058774;28;8751;-65
2022/01/17 10:16:00;;;;;;;;;20.25;20.00;27.50;96.80;;;;;;5078385;28;8749;-66
2022/01/17 10:18:28;;;;;;;;;23.25;20.75;27.40;96.90;;;;;;5078075;28;8750;-66
2022/01/17 10:21:01;;;;;;;;;25.25;25.25;27.40;97.20;;;;;;5044402;28;11030;-67
2022/01/17 10:24:06;;;;;;;;;19.20;18.40;27.30;97.40;;;;;;5040022;28;9345;-67
2022/01/17 10:37:16;;;;;;;;;28.25;23.25;27.10;98.40;;;;;;5058448;28;8768;-67
2022/01/17 10:40:01;;;;;;;;;26.20;22.60;27.00;99.00;;;;;;5057838;28;9409;-66
2022/01/17 10:42:34;;;;;;;;;22.60;22.60;26.90;98.90;;;;;;5057947;28;8768;-66
2022/01/17 10:45:18;;;;;;;;;23.75;23.00;26.80;98.70;;;;;;5040378;28;8749;-66
2022/01/17 10:47:46;;;;;;;;;24.00;21.75;26.80;98.30;;;;;;5057803;28;8758;-67
2022/01/17 10:50:14;;;;;;;;;28.20;24.80;26.80;97.90;;;;;;5043357;28;8814;-67
2022/01/17 10:52:49;;;;;;;;;27.00;23.40;26.70;98.00;;;;;;5056820;28;8799;-67
2022/01/17 10:55:38;;;;;;;;;26.00;25.25;26.60;98.10;;;;;;5078224;28;8848;-67
2022/01/17 10:58:10;;;;;;;;;22.75;19.25;26.50;98.40;;;;;;5077917;28;9454;-67
2022/01/17 11:00:56;;;;;;;;;29.25;27.75;26.30;98.30;;;;;;5077202;28;9008;-67
2022/01/17 11:03:28;;;;;;;;;36.25;32.00;26.20;98.40;;;;;;5062449;28;8750;-66
2022/01/17 11:05:55;;;;;;;;;47.50;35.75;26.20;98.80;;;;;;5059916;28;8754;-67
2022/01/17 11:08:23;;;;;;;;;34.50;30.50;26.10;99.20;;;;;;5059115;28;8769;-66
2022/01/17 11:10:53;;;;;;;;;33.00;26.60;26.00;99.60;;;;;;5059557;28;8786;-67
2022/01/17 11:13:24;;;;;;;;;34.00;27.50;25.90;99.90;;;;;;5077516;28;8761;-67
2022/01/17 11:16:11;;;;;;;;;27.60;25.00;25.80;99.90;;;;;;5077875;28;8871;-67
2022/01/17 11:18:40;;;;;;;;;37.00;33.00;25.70;99.90;;;;;;5059948;28;8758;-67
2022/01/17 11:21:14;;;;;;;;;35.50;30.50;25.60;99.90;;;;;;5077063;28;8754;-66
2022/01/17 11:23:47;;;;;;;;;29.00;27.00;25.60;99.90;;;;;;5058999;28;8758;-67
2022/01/17 11:26:14;;;;;;;;;33.25;29.25;25.60;99.90;;;;;;5076678;28;8774;-66
2022/01/17 11:28:41;;;;;;;;;32.75;31.00;25.60;99.90;;;;;;5058960;28;8738;-66
2022/01/17 11:31:15;;;;;;;;;37.25;31.50;25.50;99.90;;;;;;5059727;28;8774;-67
2022/01/17 11:33:43;;;;;;;;;43.50;35.50;25.30;99.90;;;;;;5059169;28;8755;-67
2022/01/17 11:36:09;;;;;;;;;34.50;30.75;25.20;99.90;;;;;;5077145;28;8831;-67
2022/01/17 11:38:39;;;;;;;;;37.00;33.75;25.10;99.90;;;;;;5076874;28;8774;-67
2022/01/17 11:41:06;;;;;;;;;39.00;35.75;25.10;99.90;;;;;;5076864;28;8726;-68
2022/01/17 11:43:37;;;;;;;;;40.00;33.75;25.00;99.90;;;;;;5058298;28;8719;-67
2022/01/17 11:46:22;;;;;;;;;48.75;40.25;25.00;99.90;;;;;;5077100;28;8726;-68
2022/01/17 11:48:56;;;;;;;;;54.75;45.50;25.00;99.90;;;;;;5076695;28;8751;-68
2022/01/17 11:51:23;;;;;;;;;64.50;49.75;24.90;99.90;;;;;;5072499;28;8814;-67
2022/01/17 11:53:55;;;;;;;;;53.25;44.25;24.90;99.90;;;;;;5076402;28;8867;-67
2022/01/17 11:56:58;;;;;;;;;48.75;40.25;24.90;99.90;;;;;;5076379;28;8746;-67
2022/01/17 11:59:43;;;;;;;;;48.25;40.25;24.80;99.90;;;;;;5064879;28;8750;-67
2022/01/17 12:02:28;;;;;;;;;65.75;51.00;24.80;99.90;;;;;;5076752;28;8738;-67
2022/01/17 12:05:07;;;;;;;;;77.60;60.00;24.70;99.90;;;;;;5077066;28;8793;-67
2022/01/17 12:07:43;;;;;;;;;73.00;55.40;24.70;99.90;;;;;;5076553;28;9097;-67
2022/01/17 12:10:12;;;;;;;;;67.00;52.75;24.70;99.90;;;;;;5076967;28;8807;-68
2022/01/17 12:12:39;;;;;;;;;63.50;48.50;24.70;99.90;;;;;;5041927;28;9439;-67
2022/01/17 12:15:11;;;;;;;;;76.80;60.40;24.60;99.90;;;;;;5076238;28;8815;-68
2022/01/17 12:17:37;;;;;;;;;85.60;72.60;24.50;99.90;;;;;;5059264;28;8786;-68
2022/01/17 12:20:04;;;;;;;;;63.50;48.25;24.50;99.90;;;;;;5072751;28;8765;-68
2022/01/17 12:22:32;;;;;;;;;61.25;47.75;24.50;99.90;;;;;;5075988;28;8753;-68
2022/01/17 12:25:00;;;;;;;;;60.00;46.50;24.40;99.90;;;;;;5076959;28;8726;-67
2022/01/17 12:27:28;;;;;;;;;56.50;45.00;24.40;99.90;;;;;;5076009;28;8770;-67
2022/01/17 12:30:10;;;;;;;;;63.75;48.50;24.30;99.90;;;;;;5076374;28;8754;-67
2022/01/17 12:32:40;;;;;;;;;57.50;46.50;24.40;99.90;;;;;;5075629;28;9477;-68
2022/01/17 12:35:08;;;;;;;;;54.75;41.75;24.40;99.90;;;;;;5076158;28;8842;-67
2022/01/17 12:37:35;;;;;;;;;50.50;41.50;24.40;99.90;;;;;;5076062;28;8745;-67
2022/01/17 12:40:15;;;;;;;;;54.00;44.75;24.50;99.90;;;;;;5076942;28;8714;-67
2022/01/17 12:42:55;;;;;;;;;51.00;41.75;24.40;99.90;;;;;;5075925;28;8774;-67
2022/01/17 12:45:33;;;;;;;;;48.50;39.75;24.40;99.90;;;;;;5072559;28;8753;-67
2022/01/17 12:48:02;;;;;;;;;52.75;41.75;24.40;99.90;;;;;;5058092;28;8827;-67
2022/01/17 12:50:29;;;;;;;;;49.25;41.75;24.40;99.90;;;;;;5075626;28;8811;-68
2022/01/17 12:52:57;;;;;;;;;54.50;43.25;24.30;99.90;;;;;;5075531;28;8849;-67
2022/01/17 12:55:25;;;;;;;;;52.25;40.25;24.30;99.90;;;;;;5078994;28;8784;-67
2022/01/17 12:57:52;;;;;;;;;50.25;41.25;24.30;99.90;;;;;;5062579;28;8811;-67
2022/01/17 13:00:23;;;;;;;;;51.25;43.00;24.30;99.90;;;;;;5077042;28;8758;-66
2022/01/17 13:02:53;;;;;;;;;56.75;46.00;24.30;99.90;;;;;;5079622;28;8758;-68
2022/01/17 13:05:34;;;;;;;;;61.25;45.50;24.20;99.90;;;;;;5079328;28;8730;-67
2022/01/17 13:08:04;;;;;;;;;51.75;42.00;24.20;99.90;;;;;;5079661;28;8746;-68